createdAt,value
2023-03-14T05:15:13.261Z,1.00
2023-03-14T05:16:13.263Z,0.90
2023-03-14T05:17:13.237Z,1.00
2023-03-14T05:18:13.207Z,0.80
2023-03-14T05:19:13.204Z,1.00
2023-03-14T05:20:13.180Z,1.20
2023-03-14T05:21:13.170Z,0.80
2023-03-14T05:22:13.171Z,0.90
2023-03-14T05:23:13.149Z,0.90
2023-03-14T05:24:13.133Z,0.80
2023-03-14T05:25:13.122Z,1.20
2023-03-14T05:26:13.096Z,0.70
2023-03-14T05:27:13.115Z,0.90
2023-03-14T05:28:13.081Z,0.80
2023-03-14T05:29:13.065Z,0.80
2023-03-14T05:30:13.044Z,0.70
2023-03-14T05:31:13.089Z,0.80
2023-03-14T05:32:13.042Z,0.70
2023-03-14T05:33:13.016Z,0.90
2023-03-14T05:34:13.000Z,0.80
2023-03-14T05:35:13.003Z,1.10
2023-03-14T05:36:12.998Z,1.00
2023-03-14T05:37:12.986Z,0.70
2023-03-14T05:38:12.960Z,0.60
2023-03-14T05:39:12.944Z,0.70
2023-03-14T05:40:12.933Z,0.50
2023-03-14T05:41:12.928Z,0.60
2023-03-14T05:42:12.918Z,0.60
2023-03-14T05:43:12.902Z,0.60
2023-03-14T05:44:12.878Z,0.60
2023-03-14T05:45:12.874Z,0.60
2023-03-14T05:46:12.884Z,0.50
2023-03-14T05:47:12.865Z,0.60
2023-03-14T05:48:12.844Z,0.70
2023-03-14T05:49:12.819Z,0.60
2023-03-14T05:50:12.811Z,0.60
2023-03-14T05:51:12.809Z,0.50
2023-03-14T05:52:12.802Z,0.70
2023-03-14T05:53:12.769Z,0.60
2023-03-14T05:54:12.756Z,0.80
2023-03-14T05:55:12.749Z,0.60
2023-03-14T05:56:12.726Z,0.50
2023-03-14T05:57:12.738Z,0.60
2023-03-14T05:58:12.696Z,0.60
2023-03-14T05:59:12.704Z,0.60
2023-03-14T06:00:12.682Z,0.60
2023-03-14T06:01:12.669Z,0.60
2023-03-14T06:02:12.676Z,0.70
2023-03-14T06:03:12.684Z,1.20
2023-03-14T06:04:12.635Z,0.60
2023-03-14T06:05:12.612Z,0.70
2023-03-14T06:06:12.602Z,0.50
2023-03-14T06:07:12.583Z,0.50
2023-03-14T06:08:12.584Z,0.70
2023-03-14T06:09:12.567Z,0.50
2023-03-14T06:10:12.545Z,0.70
2023-03-14T06:11:12.532Z,0.60
2023-03-14T06:12:12.525Z,0.80
2023-03-14T06:13:12.522Z,0.70
2023-03-14T06:14:12.490Z,0.80
2023-03-14T06:15:12.502Z,0.80
2023-03-14T06:16:12.495Z,1.10
2023-03-14T06:17:12.463Z,1.00
2023-03-14T06:18:12.450Z,1.10
2023-03-14T06:19:12.439Z,1.20
2023-03-14T06:20:12.420Z,1.20
2023-03-14T06:21:12.409Z,1.60
2023-03-14T06:22:12.389Z,2.00
2023-03-14T06:23:12.394Z,2.10
2023-03-14T06:24:12.368Z,1.90
2023-03-14T06:25:12.361Z,2.10
2023-03-14T06:26:12.339Z,2.30
2023-03-14T06:27:12.333Z,2.70
2023-03-14T06:28:12.328Z,2.60
2023-03-14T06:29:12.306Z,3.10
2023-03-14T06:30:12.290Z,2.80
2023-03-14T06:31:12.292Z,3.20
2023-03-14T06:32:12.266Z,3.00
2023-03-14T06:33:12.260Z,3.10
2023-03-14T06:34:12.239Z,2.90
2023-03-14T06:35:12.229Z,2.90
2023-03-14T06:36:12.239Z,2.70
2023-03-14T06:37:12.210Z,2.50
2023-03-14T06:38:12.199Z,2.60
2023-03-14T06:39:12.180Z,2.40
2023-03-14T06:40:12.165Z,2.40
2023-03-14T06:41:12.158Z,1.80
2023-03-14T06:42:12.142Z,1.90
2023-03-14T06:43:12.140Z,1.50
2023-03-14T06:44:12.111Z,1.60
2023-03-14T06:45:12.102Z,1.40
2023-03-14T06:46:12.125Z,1.40
2023-03-14T06:47:12.076Z,1.90
2023-03-14T06:48:12.095Z,1.50
2023-03-14T06:49:12.050Z,1.30
2023-03-14T06:50:12.039Z,1.30
2023-03-14T06:51:12.021Z,1.50
2023-03-14T06:52:12.011Z,2.00
2023-03-14T06:53:12.071Z,1.70
2023-03-14T06:54:11.980Z,1.90
2023-03-14T06:55:11.969Z,1.50
2023-03-14T06:56:11.961Z,1.70
2023-03-14T06:57:11.940Z,1.90
2023-03-14T06:58:12.031Z,2.20
2023-03-14T06:59:11.919Z,2.00
2023-03-14T07:00:11.917Z,2.20
2023-03-14T07:01:11.918Z,2.30
2023-03-14T07:02:11.878Z,2.20
2023-03-14T07:03:13.430Z,2.20
2023-03-14T07:04:11.957Z,2.10
2023-03-14T07:05:11.848Z,2.30
2023-03-14T07:06:11.832Z,2.10
2023-03-14T07:07:11.948Z,2.20
2023-03-14T07:08:11.807Z,2.60
2023-03-14T07:09:11.792Z,2.70
2023-03-14T07:10:11.776Z,2.70
2023-03-14T07:11:11.768Z,2.40
2023-03-14T07:12:11.776Z,3.20
2023-03-14T07:13:11.747Z,3.00
2023-03-14T07:14:11.724Z,3.10
2023-03-14T07:15:18.758Z,3.00
2023-03-14T07:16:12.778Z,3.20
2023-03-14T07:17:11.677Z,3.30
2023-03-14T07:18:11.677Z,3.30
2023-03-14T07:19:11.647Z,3.50
2023-03-14T07:20:11.645Z,3.10
2023-03-14T07:21:11.626Z,3.30
2023-03-14T07:22:11.622Z,3.70
2023-03-14T07:23:11.605Z,3.20
2023-03-14T07:24:11.593Z,3.60
2023-03-14T07:25:11.578Z,3.10
2023-03-14T07:26:11.570Z,3.40
2023-03-14T07:27:11.840Z,3.20
2023-03-14T07:28:11.554Z,3.30
2023-03-14T07:29:11.526Z,3.10
2023-03-14T07:30:11.516Z,3.20
2023-03-14T07:31:11.553Z,3.90
2023-03-14T07:32:11.496Z,3.10
2023-03-14T07:33:11.676Z,3.10
2023-03-14T07:34:11.481Z,3.50
2023-03-14T07:35:11.475Z,3.50
2023-03-14T07:36:11.474Z,3.50
2023-03-14T07:37:11.425Z,3.60
2023-03-14T07:38:11.438Z,3.50
2023-03-14T07:39:11.426Z,3.60
2023-03-14T07:40:11.385Z,4.10
2023-03-14T07:41:18.443Z,3.40
2023-03-14T07:42:11.423Z,3.70
2023-03-14T07:43:11.367Z,3.50
2023-03-14T07:44:11.352Z,3.70
2023-03-14T07:45:12.329Z,3.80
2023-03-14T07:46:11.353Z,3.80
2023-03-14T07:47:12.459Z,3.70
2023-03-14T07:48:11.300Z,3.90
2023-03-14T07:49:11.292Z,3.80
2023-03-14T07:50:11.264Z,3.70
2023-03-14T07:51:11.242Z,4.10
2023-03-14T07:52:11.244Z,3.90
2023-03-14T07:53:11.213Z,3.80
2023-03-14T07:54:11.221Z,4.20
2023-03-14T07:55:11.228Z,4.40
2023-03-14T07:56:11.187Z,4.30
2023-03-14T07:57:11.177Z,4.00
2023-03-14T07:58:11.163Z,3.90
2023-03-14T07:59:11.150Z,4.20
2023-03-14T08:00:11.139Z,4.10
2023-03-14T08:01:11.126Z,4.30
2023-03-14T08:02:11.130Z,4.40
2023-03-14T08:03:11.101Z,4.20
2023-03-14T08:04:11.152Z,4.70
2023-03-14T08:05:11.065Z,4.40
2023-03-14T08:06:11.059Z,4.30
2023-03-14T08:07:11.041Z,4.40
2023-03-14T08:08:11.029Z,4.30
2023-03-14T08:09:11.032Z,4.00
2023-03-14T08:10:11.002Z,4.20
2023-03-14T08:11:10.991Z,4.00
2023-03-14T08:12:10.980Z,3.90
2023-03-14T08:13:10.978Z,4.30
2023-03-14T08:14:10.979Z,4.40
2023-03-14T08:15:10.939Z,4.80
2023-03-14T08:16:10.993Z,4.70
2023-03-14T08:17:10.920Z,4.60
2023-03-14T08:18:10.905Z,4.80
2023-03-14T08:19:10.906Z,4.60
2023-03-14T08:20:10.884Z,4.70
2023-03-14T08:21:10.859Z,4.40
2023-03-14T08:22:10.859Z,4.20
2023-03-14T08:23:10.851Z,4.50
2023-03-14T08:24:10.847Z,3.80
2023-03-14T08:25:10.850Z,3.70
2023-03-14T08:26:10.804Z,4.50
2023-03-14T08:27:11.256Z,3.90
2023-03-14T08:28:10.789Z,5.40
2023-03-14T08:29:10.775Z,4.20
2023-03-14T08:30:10.758Z,4.20
2023-03-14T08:31:10.966Z,4.00
2023-03-14T08:32:10.837Z,4.50
2023-03-14T08:33:10.726Z,4.10
2023-03-14T08:34:10.721Z,4.40
2023-03-14T08:35:10.678Z,4.70
2023-03-14T08:36:10.818Z,4.60
2023-03-14T08:37:19.934Z,4.60
2023-03-14T08:38:11.647Z,4.70
2023-03-14T08:39:10.754Z,4.30
2023-03-14T08:40:10.637Z,4.80
2023-03-14T08:41:10.608Z,4.90
2023-03-14T08:42:10.595Z,4.60
2023-03-14T08:43:10.586Z,4.80
2023-03-14T08:44:10.626Z,4.70
2023-03-14T08:45:10.557Z,4.50
2023-03-14T08:46:10.558Z,4.50
2023-03-14T08:47:10.655Z,4.50
2023-03-14T08:48:10.530Z,4.10
2023-03-14T08:49:10.512Z,5.10
2023-03-14T08:50:12.334Z,4.60
2023-03-14T08:51:10.486Z,4.50
2023-03-14T08:52:10.475Z,4.50
2023-03-14T08:53:10.525Z,4.80
2023-03-14T08:54:10.461Z,4.10
2023-03-14T08:55:10.442Z,4.50
2023-03-14T08:56:10.424Z,4.20
2023-03-14T08:57:10.397Z,4.10
2023-03-14T08:58:10.408Z,4.10
2023-03-14T08:59:10.392Z,4.00
2023-03-14T09:00:10.381Z,4.50
2023-03-14T09:01:10.376Z,4.10
2023-03-14T09:02:12.318Z,3.80
2023-03-14T09:03:10.415Z,4.70
2023-03-14T09:04:10.387Z,4.10
2023-03-14T09:05:10.317Z,3.90
2023-03-14T09:06:10.294Z,3.80
2023-03-14T09:07:10.278Z,3.50
2023-03-14T09:08:10.365Z,3.20
2023-03-14T09:09:10.270Z,3.80
2023-03-14T09:10:10.265Z,3.80
2023-03-14T09:11:10.283Z,3.30
2023-03-14T09:12:10.213Z,3.50
2023-03-14T09:13:10.204Z,3.00
2023-03-14T09:14:10.199Z,3.20
2023-03-14T09:15:10.189Z,2.90
2023-03-14T09:16:10.261Z,2.90
2023-03-14T09:17:10.144Z,3.00
2023-03-14T09:18:10.138Z,3.30
2023-03-14T09:19:10.139Z,3.20
2023-03-14T09:20:10.131Z,3.30
2023-03-14T09:21:10.093Z,3.30
2023-03-14T09:22:10.082Z,3.80
2023-03-14T09:23:10.066Z,3.80
2023-03-14T09:24:10.060Z,3.50
2023-03-14T09:25:10.057Z,3.20
2023-03-14T09:26:10.022Z,3.10
2023-03-14T09:27:10.012Z,3.10
2023-03-14T09:28:10.012Z,3.30
2023-03-14T09:29:09.990Z,3.00
2023-03-14T09:30:09.999Z,2.90
2023-03-14T09:31:09.969Z,2.70
2023-03-14T09:32:09.953Z,2.60
2023-03-14T09:33:09.932Z,2.50
2023-03-14T09:34:09.948Z,2.30
2023-03-14T09:35:09.919Z,2.20
2023-03-14T09:36:09.902Z,2.30
2023-03-14T09:37:09.882Z,2.30
2023-03-14T09:38:09.875Z,2.10
2023-03-14T09:39:09.870Z,2.20
2023-03-14T09:40:10.403Z,1.70
2023-03-14T09:41:09.823Z,2.10
2023-03-14T09:42:09.820Z,2.00
2023-03-14T09:43:09.800Z,0.90
2023-03-14T09:44:09.790Z,0.70
2023-03-14T09:45:09.792Z,0.80
2023-03-14T09:46:09.836Z,0.60
2023-03-14T09:47:09.747Z,0.40
2023-03-14T09:48:09.734Z,0.40
2023-03-14T09:49:09.720Z,0.20
2023-03-14T09:50:09.738Z,0.20
2023-03-14T09:51:09.696Z,0.20
2023-03-14T09:52:09.674Z,0.10
2023-03-14T09:53:09.663Z,0.20
2023-03-14T09:54:09.653Z,0.30
2023-03-14T09:55:09.643Z,0.10
2023-03-14T09:56:09.633Z,0.30
2023-03-14T09:57:09.613Z,0.20
2023-03-14T09:58:09.603Z,0.20
2023-03-14T09:59:09.593Z,0.10
2023-03-14T10:00:09.587Z,0.10
2023-03-14T10:01:09.603Z,0.10
2023-03-14T10:02:09.547Z,0.00
2023-03-14T10:03:09.539Z,0.10
2023-03-14T10:04:09.555Z,0.10
2023-03-14T10:05:09.525Z,0.20
2023-03-14T10:06:09.497Z,0.10
2023-03-14T10:07:09.478Z,0.20
2023-03-14T10:08:09.468Z,0.10
2023-03-14T10:09:09.480Z,0.10
2023-03-14T10:10:09.469Z,0.20
2023-03-14T10:11:09.427Z,0.20
2023-03-14T10:12:09.542Z,0.20
2023-03-14T10:13:09.399Z,0.20
2023-03-14T10:14:09.386Z,0.30
2023-03-14T10:15:09.402Z,0.20
2023-03-14T10:16:09.372Z,0.10
2023-03-14T10:17:09.402Z,0.30
2023-03-14T10:18:09.334Z,0.20
2023-03-14T10:19:09.315Z,0.20
2023-03-14T10:20:09.324Z,0.30
2023-03-14T10:21:09.293Z,0.30
2023-03-14T10:22:09.283Z,0.30
2023-03-14T10:23:09.272Z,0.40
2023-03-14T10:24:09.273Z,0.40
2023-03-14T10:25:09.254Z,0.30
2023-03-14T10:26:09.236Z,0.40
2023-03-14T10:27:09.373Z,0.30
2023-03-14T10:28:09.214Z,0.30
2023-03-14T10:29:09.185Z,0.40
2023-03-14T10:30:09.213Z,0.40
2023-03-14T10:31:09.257Z,0.20
2023-03-14T10:32:09.153Z,0.30
2023-03-14T10:33:09.148Z,0.10
2023-03-14T10:34:09.123Z,0.10
2023-03-14T10:35:09.145Z,0.20
2023-03-14T10:36:09.459Z,0.10
2023-03-14T10:37:09.094Z,0.10
2023-03-14T10:38:09.086Z,0.10
2023-03-14T10:39:09.078Z,0.20
2023-03-14T10:40:09.071Z,0.10
2023-03-14T10:41:09.046Z,0.30
2023-03-14T10:42:09.069Z,0.10
2023-03-14T10:43:09.026Z,0.20
2023-03-14T10:44:09.008Z,0.20
2023-03-14T10:45:09.016Z,0.20
2023-03-14T10:46:08.987Z,0.10
2023-03-14T10:47:08.971Z,0.20
2023-03-14T10:48:08.954Z,0.10
2023-03-14T10:49:08.946Z,0.20
2023-03-14T10:50:08.937Z,0.10
2023-03-14T10:51:08.922Z,0.20
2023-03-14T10:52:08.906Z,0.20
2023-03-14T10:53:08.888Z,0.10
2023-03-14T10:54:08.876Z,0.10
2023-03-14T10:55:08.866Z,0.20
2023-03-14T10:56:08.855Z,0.20
2023-03-14T10:57:08.846Z,0.20
2023-03-14T10:58:08.825Z,0.20
2023-03-14T10:59:08.820Z,0.20
2023-03-14T11:00:08.796Z,0.20
2023-03-14T11:01:08.865Z,0.10
2023-03-14T11:02:08.774Z,0.20
2023-03-14T11:03:08.771Z,0.20
2023-03-14T11:04:08.745Z,0.20
2023-03-14T11:05:08.742Z,0.20
2023-03-14T11:06:08.743Z,0.10
2023-03-14T11:07:08.734Z,0.10
2023-03-14T11:08:08.952Z,3.40
2023-03-14T11:09:08.682Z,0.20
2023-03-14T11:10:08.689Z,0.20
2023-03-14T11:11:08.663Z,0.20
2023-03-14T11:12:08.645Z,0.30
2023-03-14T11:13:08.634Z,0.20
2023-03-14T11:14:08.644Z,0.30
2023-03-14T11:15:08.609Z,0.70
2023-03-14T11:16:08.704Z,0.50
2023-03-14T11:17:08.573Z,0.20
2023-03-14T11:18:08.563Z,0.40
2023-03-14T11:19:08.585Z,0.20
2023-03-14T11:20:08.551Z,0.20
2023-03-14T11:21:08.543Z,0.30
2023-03-14T11:22:08.522Z,0.30
2023-03-14T11:23:08.502Z,0.30
2023-03-14T11:24:08.493Z,0.30
2023-03-14T11:25:08.483Z,0.20
2023-03-14T11:26:08.473Z,0.20
2023-03-14T11:27:08.460Z,0.20
2023-03-14T11:28:08.438Z,0.30
2023-03-14T11:29:08.450Z,0.90
2023-03-14T11:30:08.413Z,0.20
2023-03-14T11:31:08.442Z,0.30
2023-03-14T11:32:08.879Z,0.30
2023-03-14T11:33:08.813Z,0.30
2023-03-14T11:34:08.729Z,0.40
2023-03-14T11:35:08.713Z,0.30
2023-03-14T11:36:08.758Z,0.30
2023-03-14T11:37:08.321Z,0.30
2023-03-14T11:38:08.324Z,0.40
2023-03-14T11:39:08.300Z,0.40
2023-03-14T11:40:08.297Z,0.30
2023-03-14T11:41:08.280Z,0.50
2023-03-14T11:42:08.270Z,0.40
2023-03-14T11:43:08.264Z,0.50
2023-03-14T11:44:08.239Z,0.40
2023-03-14T11:45:08.220Z,0.40
2023-03-14T11:46:08.247Z,0.50
2023-03-14T11:47:08.192Z,0.40
2023-03-14T11:48:08.183Z,0.40
2023-03-14T11:49:08.168Z,0.50
2023-03-14T11:50:08.161Z,0.60
2023-03-14T11:51:08.166Z,3.10
2023-03-14T11:52:08.141Z,0.40
2023-03-14T11:53:08.121Z,0.40
2023-03-14T11:54:08.109Z,0.40
2023-03-14T11:55:08.104Z,0.50
2023-03-14T11:56:08.098Z,0.50
2023-03-14T11:57:08.069Z,0.70
2023-03-14T11:58:08.058Z,0.70
2023-03-14T11:59:08.046Z,0.50
2023-03-14T12:00:08.037Z,0.70
2023-03-14T12:01:08.049Z,1.20
2023-03-14T12:02:08.082Z,0.50
2023-03-14T12:03:08.016Z,0.60
2023-03-14T12:04:08.088Z,0.60
2023-03-14T12:05:07.965Z,0.60
2023-03-14T12:06:07.976Z,0.70
2023-03-14T12:07:07.957Z,1.20
2023-03-14T12:08:07.957Z,0.60
2023-03-14T12:09:07.983Z,0.50
2023-03-14T12:10:07.925Z,0.50
2023-03-14T12:11:07.893Z,0.60
2023-03-14T12:12:07.872Z,0.60
2023-03-14T12:13:07.853Z,0.50
2023-03-14T12:14:07.852Z,0.60
2023-03-14T12:15:07.836Z,0.70
2023-03-14T12:16:07.908Z,0.80
2023-03-14T12:17:07.808Z,0.50
2023-03-14T12:18:07.791Z,0.50
2023-03-14T12:19:07.795Z,0.60
2023-03-14T12:20:07.770Z,0.60
2023-03-14T12:21:07.763Z,0.50
2023-03-14T12:22:07.741Z,0.60
2023-03-14T12:23:07.744Z,0.60
2023-03-14T12:24:07.720Z,0.60
2023-03-14T12:25:07.698Z,0.50
2023-03-14T12:26:07.701Z,0.60
2023-03-14T12:27:07.680Z,0.50
2023-03-14T12:28:07.680Z,0.60
2023-03-14T12:29:07.709Z,0.70
2023-03-14T12:30:07.674Z,0.60
2023-03-14T12:31:07.639Z,0.50
2023-03-14T12:32:07.621Z,0.60
2023-03-14T12:33:07.605Z,0.60
2023-03-14T12:34:07.591Z,0.70
2023-03-14T12:35:07.576Z,0.60
2023-03-14T12:36:07.558Z,0.60
2023-03-14T12:37:07.551Z,0.70
2023-03-14T12:38:07.544Z,0.60
2023-03-14T12:39:08.537Z,0.70
2023-03-14T12:40:07.504Z,0.60
2023-03-14T12:41:07.504Z,0.60
2023-03-14T12:42:07.492Z,0.60
2023-03-14T12:43:07.487Z,0.60
2023-03-14T12:44:07.457Z,0.90
2023-03-14T12:45:07.444Z,0.70
2023-03-14T12:46:07.447Z,0.70
2023-03-14T12:47:07.425Z,0.80
2023-03-14T12:48:07.408Z,0.90
2023-03-14T12:49:07.393Z,0.80
2023-03-14T12:50:07.386Z,0.90
2023-03-14T12:51:07.363Z,0.80
2023-03-14T12:52:07.364Z,0.90
2023-03-14T12:53:07.336Z,1.00
2023-03-14T12:54:07.348Z,1.00
2023-03-14T12:55:07.314Z,1.00
2023-03-14T12:56:07.306Z,0.90
2023-03-14T12:57:07.303Z,1.10
2023-03-14T12:58:07.289Z,0.70
2023-03-14T12:59:07.265Z,2.10
2023-03-14T13:00:07.255Z,1.30
2023-03-14T13:01:07.252Z,1.10
2023-03-14T13:02:07.239Z,1.50
2023-03-14T13:03:07.213Z,1.50
2023-03-14T13:04:07.233Z,1.90
2023-03-14T13:05:07.192Z,1.30
2023-03-14T13:06:07.181Z,1.40
2023-03-14T13:07:07.171Z,1.30
2023-03-14T13:08:07.164Z,1.80
2023-03-14T13:09:07.132Z,1.70
2023-03-14T13:10:07.128Z,1.90
2023-03-14T13:11:07.105Z,2.20
2023-03-14T13:12:07.121Z,1.60
2023-03-14T13:13:07.270Z,1.40
2023-03-14T13:14:07.082Z,1.70
2023-03-14T13:15:07.668Z,1.60
2023-03-14T13:16:07.117Z,2.10
2023-03-14T13:17:30.270Z,2.00
2023-03-14T13:18:08.083Z,2.20
2023-03-14T13:19:07.001Z,2.60
2023-03-14T13:20:07.001Z,1.80
2023-03-14T13:21:06.977Z,1.60
2023-03-14T13:22:06.991Z,2.10
2023-03-14T13:23:06.971Z,1.70
2023-03-14T13:24:06.948Z,1.60
2023-03-14T13:25:06.938Z,1.60
2023-03-14T13:26:07.040Z,2.80
2023-03-14T13:27:06.921Z,1.60
2023-03-14T13:28:07.568Z,1.40
2023-03-14T13:29:06.875Z,1.50
2023-03-14T13:30:06.900Z,2.00
2023-03-14T13:31:06.901Z,1.30
2023-03-14T13:32:06.863Z,1.80
2023-03-14T13:33:07.027Z,1.60
2023-03-14T13:34:06.849Z,1.30
2023-03-14T13:35:06.890Z,1.50
2023-03-14T13:36:06.837Z,2.40
2023-03-14T13:37:06.818Z,1.80
2023-03-14T13:38:13.949Z,1.70
2023-03-14T13:39:07.759Z,1.70
2023-03-14T13:40:06.761Z,1.60
2023-03-14T13:41:06.729Z,1.70
2023-03-14T13:42:14.171Z,1.40
2023-03-14T13:43:06.702Z,1.50
2023-03-14T13:44:06.681Z,1.60
2023-03-14T13:45:06.675Z,1.80
2023-03-14T13:46:07.032Z,1.70
2023-03-14T13:47:06.663Z,1.50
2023-03-14T13:48:06.642Z,1.80
2023-03-14T13:49:06.626Z,1.70
2023-03-14T13:50:06.610Z,1.70
2023-03-14T13:51:06.608Z,1.90
2023-03-14T13:52:06.600Z,1.60
2023-03-14T13:53:06.572Z,1.50
2023-03-14T13:54:06.553Z,1.30
2023-03-14T13:55:06.550Z,1.50
2023-03-14T13:56:06.637Z,1.60
2023-03-14T13:57:06.555Z,1.30
2023-03-14T13:58:06.507Z,1.30
2023-03-14T13:59:06.510Z,1.80
2023-03-14T14:00:06.497Z,1.50
2023-03-14T14:01:06.483Z,1.50
2023-03-14T14:02:06.462Z,1.60
2023-03-14T14:03:06.443Z,1.40
2023-03-14T14:04:06.428Z,1.40
2023-03-14T14:05:06.515Z,1.40
2023-03-14T14:06:06.404Z,1.50
2023-03-14T14:07:06.398Z,1.20
2023-03-14T14:08:06.380Z,1.30
2023-03-14T14:09:06.393Z,1.10
2023-03-14T14:10:06.352Z,1.50
2023-03-14T14:11:06.343Z,1.20
2023-03-14T14:12:21.689Z,1.40
2023-03-14T14:13:07.323Z,1.30
2023-03-14T14:14:06.286Z,1.20
2023-03-14T14:15:06.307Z,1.10
2023-03-14T14:16:06.348Z,1.20
2023-03-14T14:17:06.267Z,1.20
2023-03-14T14:18:06.258Z,1.40
2023-03-14T14:19:08.557Z,1.30
2023-03-14T14:20:06.206Z,1.60
2023-03-14T14:21:06.217Z,1.40
2023-03-14T14:22:06.207Z,1.30
2023-03-14T14:23:06.197Z,1.40
2023-03-14T14:24:08.298Z,1.60
2023-03-14T14:25:06.199Z,1.60
2023-03-14T14:26:08.876Z,1.20
2023-03-14T14:27:06.153Z,1.40
2023-03-14T14:28:06.129Z,2.40
2023-03-14T14:29:06.110Z,1.40
2023-03-14T14:30:06.175Z,1.30
2023-03-14T14:31:06.114Z,1.50
2023-03-14T14:32:06.072Z,1.00
2023-03-14T14:33:06.119Z,1.10
2023-03-14T14:34:06.038Z,1.10
2023-03-14T14:35:06.030Z,1.30
2023-03-14T14:36:06.057Z,1.10
2023-03-14T14:37:06.001Z,1.40
2023-03-14T14:38:06.002Z,2.70
2023-03-14T14:39:06.071Z,1.00
2023-03-14T14:40:05.987Z,1.60
2023-03-14T14:41:05.959Z,1.20
2023-03-14T14:42:05.936Z,1.10
2023-03-14T14:43:06.022Z,0.90
2023-03-14T14:44:05.919Z,1.80
2023-03-14T14:45:05.900Z,1.10
2023-03-14T14:46:05.910Z,1.70
2023-03-14T14:47:05.879Z,1.40
2023-03-14T14:48:05.874Z,1.20
2023-03-14T14:49:05.841Z,0.80
2023-03-14T14:50:05.938Z,1.30
2023-03-14T14:51:05.843Z,1.00
2023-03-14T14:52:05.822Z,0.90
2023-03-14T14:53:05.802Z,0.90
2023-03-14T14:54:05.796Z,1.10
2023-03-14T14:55:05.772Z,0.90
2023-03-14T14:56:05.753Z,0.90
2023-03-14T14:57:05.753Z,0.90
2023-03-14T14:58:05.733Z,1.00
2023-03-14T14:59:05.721Z,0.90
2023-03-14T15:00:05.733Z,0.70
2023-03-14T15:01:05.692Z,0.90
2023-03-14T15:02:05.724Z,0.90
2023-03-14T15:03:05.709Z,0.90
2023-03-14T15:04:05.653Z,1.10
2023-03-14T15:05:05.661Z,1.10
2023-03-14T15:06:05.631Z,1.10
2023-03-14T15:07:05.615Z,0.80
2023-03-14T15:08:05.612Z,0.80
2023-03-14T15:09:05.584Z,1.00
2023-03-14T15:10:05.573Z,0.60
2023-03-14T15:11:05.675Z,0.90
2023-03-14T15:12:05.545Z,0.60
2023-03-14T15:13:05.555Z,0.80
2023-03-14T15:14:05.523Z,0.70
2023-03-14T15:15:05.513Z,0.70
2023-03-14T15:16:05.557Z,0.70
2023-03-14T15:17:05.487Z,0.60
2023-03-14T15:18:05.485Z,0.80
2023-03-14T15:19:17.895Z,0.80
2023-03-14T15:20:06.449Z,0.80
2023-03-14T15:21:05.447Z,0.70
2023-03-14T15:22:05.435Z,1.10
2023-03-14T15:23:05.415Z,0.70
2023-03-14T15:24:05.398Z,0.60
2023-03-14T15:25:05.380Z,1.00
2023-03-14T15:26:05.384Z,0.70
2023-03-14T15:27:05.356Z,0.60
2023-03-14T15:28:05.345Z,0.90
2023-03-14T15:29:05.328Z,1.20
2023-03-14T15:30:05.323Z,4.20
2023-03-14T15:31:05.346Z,3.60
2023-03-14T15:32:05.390Z,3.40
2023-03-14T15:33:05.437Z,0.90
2023-03-14T15:34:05.265Z,2.00
2023-03-14T15:35:05.244Z,1.30
2023-03-14T15:36:05.278Z,1.00
2023-03-14T15:37:05.224Z,0.70
2023-03-14T15:38:05.216Z,0.90
2023-03-14T15:39:05.215Z,1.40
2023-03-14T15:40:05.189Z,2.00
2023-03-14T15:41:05.166Z,0.80
2023-03-14T15:42:05.165Z,0.70
2023-03-14T15:43:05.184Z,0.80
2023-03-14T15:44:05.144Z,0.70
2023-03-14T15:45:05.122Z,0.90
2023-03-14T15:46:05.121Z,0.70
2023-03-14T15:47:05.113Z,0.90
2023-03-14T15:48:05.092Z,0.90
2023-03-14T15:49:05.088Z,0.80
2023-03-14T15:50:05.074Z,1.00
2023-03-14T15:51:05.043Z,0.90
2023-03-14T15:52:05.038Z,0.80
2023-03-14T15:53:05.013Z,0.90
2023-03-14T15:54:05.013Z,1.30
2023-03-14T15:55:05.010Z,3.20
2023-03-14T15:56:04.972Z,1.00
2023-03-14T15:57:04.961Z,1.00
2023-03-14T15:58:04.953Z,0.90
2023-03-14T15:59:04.957Z,2.00
2023-03-14T16:00:04.923Z,1.00
2023-03-14T16:01:04.999Z,1.10
2023-03-14T16:02:04.907Z,1.00
2023-03-14T16:03:04.912Z,0.90
2023-03-14T16:04:04.882Z,1.00
2023-03-14T16:05:04.942Z,1.30
2023-03-14T16:06:04.853Z,1.20
2023-03-14T16:07:04.835Z,0.90
2023-03-14T16:08:04.826Z,0.90
2023-03-14T16:09:04.819Z,0.90
2023-03-14T16:10:04.809Z,0.80
2023-03-14T16:11:04.781Z,1.20
2023-03-14T16:12:04.768Z,0.90
2023-03-14T16:13:04.757Z,0.80
2023-03-14T16:14:04.750Z,1.00
2023-03-14T16:15:04.717Z,2.10
2023-03-14T16:16:04.781Z,0.80
2023-03-14T16:17:05.852Z,0.90
2023-03-14T16:18:20.788Z,1.00
2023-03-14T16:19:05.683Z,0.90
2023-03-14T16:20:04.669Z,0.80
2023-03-14T16:21:04.656Z,0.70
2023-03-14T16:22:04.648Z,1.20
2023-03-14T16:23:04.615Z,1.10
2023-03-14T16:24:04.623Z,1.50
2023-03-14T16:25:04.586Z,0.70
2023-03-14T16:26:04.586Z,1.10
2023-03-14T16:27:05.887Z,1.00
2023-03-14T16:28:11.078Z,0.70
2023-03-14T16:29:05.552Z,0.70
2023-03-14T16:30:04.533Z,0.70
2023-03-14T16:31:04.505Z,0.70
2023-03-14T16:32:04.568Z,0.80
2023-03-14T16:33:05.593Z,0.60
2023-03-14T16:34:04.485Z,1.00
2023-03-14T16:35:04.463Z,0.80
2023-03-14T16:36:04.519Z,1.10
2023-03-14T16:37:04.470Z,2.30
2023-03-14T16:38:04.424Z,3.70
2023-03-14T16:39:04.426Z,1.20
2023-03-14T16:40:12.693Z,0.70
2023-03-14T16:41:05.385Z,0.70
2023-03-14T16:42:04.378Z,1.00
2023-03-14T16:43:15.782Z,0.90
2023-03-14T16:44:05.354Z,0.80
2023-03-14T16:45:04.338Z,0.90
2023-03-14T16:46:04.455Z,0.80
2023-03-14T16:47:04.318Z,1.00
2023-03-14T16:48:04.283Z,0.70
2023-03-14T16:49:04.298Z,0.70
2023-03-14T16:50:04.265Z,0.70
2023-03-14T16:51:04.257Z,0.90
2023-03-14T16:52:04.233Z,1.00
2023-03-14T16:53:04.236Z,1.10
2023-03-14T16:54:04.229Z,1.00
2023-03-14T16:55:04.208Z,1.00
2023-03-14T16:56:04.185Z,0.80
2023-03-14T16:57:04.182Z,1.20
2023-03-14T16:58:04.178Z,1.00
2023-03-14T16:59:04.156Z,1.20
2023-03-14T17:00:04.145Z,0.90
2023-03-14T17:01:04.159Z,1.20
2023-03-14T17:02:04.109Z,1.00
2023-03-14T17:03:04.103Z,0.70
2023-03-14T17:04:04.137Z,0.90
2023-03-14T17:05:04.094Z,0.90
2023-03-14T17:06:04.052Z,0.90
2023-03-14T17:07:04.055Z,0.90
2023-03-14T17:08:04.049Z,0.90
2023-03-14T17:09:04.021Z,0.80
2023-03-14T17:10:04.025Z,0.90
2023-03-14T17:11:04.003Z,0.80
2023-03-14T17:12:03.988Z,1.10
2023-03-14T17:13:03.972Z,0.80
2023-03-14T17:14:03.952Z,1.00
2023-03-14T17:15:03.950Z,1.30
2023-03-14T17:16:03.990Z,1.10
2023-03-14T17:17:06.644Z,0.80
2023-03-14T17:18:03.897Z,0.90
2023-03-14T17:19:03.888Z,1.00
2023-03-14T17:20:03.886Z,0.90
2023-03-14T17:21:03.868Z,1.00
2023-03-14T17:22:21.693Z,1.00
2023-03-14T17:23:04.845Z,1.10
2023-03-14T17:24:03.870Z,1.80
2023-03-14T17:25:03.829Z,0.70
2023-03-14T17:26:03.853Z,1.00
2023-03-14T17:27:03.788Z,2.00
2023-03-14T17:28:03.766Z,0.80
2023-03-14T17:29:03.773Z,1.90
2023-03-14T17:30:03.795Z,1.40
2023-03-14T17:31:03.800Z,1.70
2023-03-14T17:32:03.786Z,1.80
2023-03-14T17:33:03.844Z,1.00
2023-03-14T17:34:03.700Z,1.20
2023-03-14T17:35:03.690Z,6.60
2023-03-14T17:36:03.750Z,1.40
2023-03-14T17:37:03.679Z,2.60
2023-03-14T17:38:03.648Z,1.10
2023-03-14T17:39:03.636Z,8.50
2023-03-14T17:40:03.624Z,2.00
2023-03-14T17:41:03.609Z,15.70
2023-03-14T17:42:03.594Z,13.50
2023-03-14T17:43:03.587Z,7.20
2023-03-14T17:44:03.565Z,22.20
2023-03-14T17:45:03.569Z,13.80
2023-03-14T17:46:03.562Z,7.60
2023-03-14T17:47:03.544Z,18.50
2023-03-14T17:48:03.515Z,6.60
2023-03-14T17:49:03.506Z,12.20
2023-03-14T17:50:03.505Z,7.30
2023-03-14T17:51:03.481Z,4.20
2023-03-14T17:52:03.465Z,5.00
2023-03-14T17:53:03.455Z,1.50
2023-03-14T17:54:03.434Z,1.90
2023-03-14T17:55:03.429Z,2.30
2023-03-14T17:56:03.425Z,2.80
2023-03-14T17:57:03.406Z,3.80
2023-03-14T17:58:03.393Z,2.30
2023-03-14T17:59:03.385Z,3.30
2023-03-14T18:00:03.367Z,1.60
2023-03-14T18:01:03.377Z,4.00
2023-03-14T18:02:03.454Z,2.30
2023-03-14T18:03:03.422Z,1.40
2023-03-14T18:04:03.375Z,1.20
2023-03-14T18:05:03.329Z,1.40
2023-03-14T18:06:03.296Z,1.60
2023-03-14T18:07:03.274Z,1.00
2023-03-14T18:08:03.267Z,1.00
2023-03-14T18:09:03.260Z,1.20
2023-03-14T18:10:03.237Z,1.50
2023-03-14T18:11:03.245Z,1.30
2023-03-14T18:12:07.998Z,1.00
2023-03-14T18:13:04.214Z,1.00
2023-03-14T18:14:03.193Z,1.00
2023-03-14T18:15:03.175Z,0.90
2023-03-14T18:16:03.217Z,1.20
2023-03-14T18:17:03.161Z,1.20
2023-03-14T18:18:03.145Z,1.10
2023-03-14T18:19:03.155Z,1.00
2023-03-14T18:20:03.117Z,1.00
2023-03-14T18:21:03.115Z,0.80
2023-03-14T18:22:03.083Z,1.00
2023-03-14T18:23:03.082Z,1.00
2023-03-14T18:24:03.132Z,1.00
2023-03-14T18:25:03.086Z,1.40
2023-03-14T18:26:03.044Z,1.00
2023-03-14T18:27:03.045Z,0.80
2023-03-14T18:28:03.018Z,0.90
2023-03-14T18:29:02.992Z,0.80
2023-03-14T18:30:02.989Z,1.50
2023-03-14T18:31:03.098Z,1.20
2023-03-14T18:32:02.950Z,0.90
2023-03-14T18:33:03.026Z,1.00